Time;durP1;ratioP1;P1;durP2;ratioP2;P2;SDS_P1;SDS_P2;PMS_P1;PMS_P2;Temp;Humidity;BMP_temperature;BMP_pressure;BME280_temperature;BME280_humidity;BME280_pressure;Samples;Min_cycle;Max_cycle;Signal;HPM_P1;HPM_P2
2021/03/19 00:01:27;;;;;;;29.30;17.23;;;;;;;-1.30;84.83;96636.88;5007510;28;20121;-72
2021/03/19 00:03:54;;;;;;;30.05;18.08;;;;;;;-1.36;84.66;96621.94;5010422;28;20048;-71
2021/03/19 00:06:20;;;;;;;25.73;16.63;;;;;;;-1.31;84.92;96635.25;4997546;28;20075;-71
2021/03/19 00:08:46;;;;;;;29.23;16.25;;;;;;;-1.30;84.51;96640.25;5007702;28;20046;-70
2021/03/19 00:11:13;;;;;;;31.13;17.13;;;;;;;-1.48;84.95;96634.56;5007254;28;20105;-71
2021/03/19 00:13:40;;;;;;;26.15;15.77;;;;;;;-1.65;85.58;96632.25;5008398;28;20133;-70
2021/03/19 00:16:07;;;;;;;32.95;17.65;;;;;;;-1.74;86.33;96625.94;5008388;28;20054;-71
2021/03/19 00:18:37;;;;;;;32.08;18.70;;;;;;;-1.70;85.88;96636.78;4995726;28;20046;-70
2021/03/19 00:21:04;;;;;;;30.00;17.17;;;;;;;-1.77;86.69;96630.44;5008886;28;20072;-71
2021/03/19 00:23:31;;;;;;;31.80;18.17;;;;;;;-1.69;85.77;96621.41;4994222;28;20045;-70
2021/03/19 00:25:57;;;;;;;32.63;18.48;;;;;;;-1.74;85.80;96620.84;4994623;28;20050;-71
2021/03/19 00:28:23;;;;;;;31.88;17.98;;;;;;;-1.82;86.65;96632.44;5010990;28;20452;-71
2021/03/19 00:30:50;;;;;;;33.55;18.23;;;;;;;-1.94;86.91;96627.16;5010020;28;20046;-71
2021/03/19 00:33:16;;;;;;;37.90;19.38;;;;;;;-2.00;87.50;96624.16;5008958;28;20060;-70
2021/03/19 00:35:43;;;;;;;28.90;17.77;;;;;;;-1.98;87.36;96615.50;5008867;28;20356;-71
2021/03/19 00:38:10;;;;;;;36.55;20.00;;;;;;;-1.97;87.24;96616.31;4992782;28;20547;-71
2021/03/19 00:40:38;;;;;;;34.80;17.60;;;;;;;-1.96;87.25;96623.88;5002736;28;20041;-70
2021/03/19 00:43:07;;;;;;;35.20;20.13;;;;;;;-2.08;87.50;96625.44;5007872;28;20334;-71
2021/03/19 00:45:33;;;;;;;40.35;21.63;;;;;;;-2.28;88.55;96618.97;5006589;28;20124;-71
2021/03/19 00:48:00;;;;;;;40.17;20.30;;;;;;;-2.09;87.87;96617.88;4986168;28;20269;-71
2021/03/19 00:50:35;;;;;;;39.67;20.88;;;;;;;-2.17;87.95;96614.97;5006755;28;20493;-70
2021/03/19 00:53:02;;;;;;;41.35;21.65;;;;;;;-2.18;87.97;96615.88;4991911;28;20078;-70
2021/03/19 00:55:30;;;;;;;32.63;19.73;;;;;;;-2.12;87.83;96620.59;5007081;28;20054;-71
2021/03/19 00:57:56;;;;;;;36.63;19.77;;;;;;;-2.12;87.92;96612.94;4993816;28;20114;-71
2021/03/19 01:00:24;;;;;;;36.38;20.35;;;;;;;-2.15;88.11;96619.06;5006385;28;20074;-71
2021/03/19 01:02:51;;;;;;;34.33;18.17;;;;;;;-2.12;87.85;96618.88;4991978;28;22377;-71
2021/03/19 01:05:22;;;;;;;33.70;18.98;;;;;;;-2.11;87.98;96610.31;5003745;28;20137;-71
2021/03/19 01:07:50;;;;;;;35.17;19.10;;;;;;;-2.01;87.68;96612.31;5005531;28;20085;-71
2021/03/19 01:10:22;;;;;;;37.45;20.58;;;;;;;-1.91;87.14;96614.22;5005358;28;20113;-71
2021/03/19 01:12:48;;;;;;;29.30;16.45;;;;;;;-1.70;86.40;96606.16;5003277;28;20038;-71
2021/03/19 01:15:16;;;;;;;31.95;18.70;;;;;;;-1.73;85.68;96603.81;4994587;28;20077;-71
2021/03/19 01:17:43;;;;;;;31.25;17.63;;;;;;;-1.85;86.42;96603.63;5012334;28;20042;-70
2021/03/19 01:20:13;;;;;;;32.30;17.98;;;;;;;-1.72;86.21;96595.22;5011589;28;20046;-70
2021/03/19 01:22:39;;;;;;;28.25;17.05;;;;;;;-1.69;85.89;96590.75;5010705;28;20074;-71
2021/03/19 01:25:09;;;;;;;27.40;17.08;;;;;;;-1.69;85.72;96600.16;4989432;28;20058;-70
2021/03/19 01:27:35;;;;;;;28.77;16.35;;;;;;;-1.70;85.97;96589.09;5012327;28;20109;-71
2021/03/19 01:30:05;;;;;;;29.98;17.08;;;;;;;-1.73;85.65;96594.41;5009084;28;20479;-71
2021/03/19 01:32:31;;;;;;;26.55;16.75;;;;;;;-1.83;86.21;96595.09;5001632;28;20540;-70
2021/03/19 01:34:59;;;;;;;31.98;17.13;;;;;;;-1.58;85.32;96587.53;5008827;28;20373;-71
2021/03/19 01:37:27;;;;;;;26.23;17.00;;;;;;;-1.59;85.03;96592.75;5011020;28;20490;-71
2021/03/19 01:39:53;;;;;;;27.10;15.88;;;;;;;-1.58;85.38;96596.94;5010757;28;20042;-72
2021/03/19 01:42:19;;;;;;;29.90;16.35;;;;;;;-1.41;84.77;96589.03;4993247;28;20073;-71
2021/03/19 01:45:07;;;;;;;27.20;14.80;;;;;;;-1.31;84.06;96596.97;4985191;28;20050;-71
2021/03/19 01:48:11;;;;;;;24.88;15.38;;;;;;;-1.44;84.30;96590.06;5008454;28;20366;-71
2021/03/19 01:51:16;;;;;;;31.65;17.52;;;;;;;-1.30;84.11;96590.91;5013230;28;20434;-71
2021/03/19 01:54:24;;;;;;;34.70;19.30;;;;;;;-1.62;84.64;96585.28;5009631;28;20034;-71
2021/03/19 01:57:28;;;;;;;30.30;17.20;;;;;;;-1.53;84.98;96588.06;4978911;28;24080;-71
2021/03/19 02:00:31;;;;;;;26.50;16.40;;;;;;;-1.54;84.68;96591.53;5010827;28;20133;-70
2021/03/19 02:03:36;;;;;;;30.60;17.77;;;;;;;-1.47;84.46;96587.69;5012994;28;20049;-70
2021/03/19 02:06:40;;;;;;;31.98;17.88;;;;;;;-1.76;85.57;96578.47;5008986;28;20046;-71
2021/03/19 02:09:44;;;;;;;30.27;16.60;;;;;;;-1.72;85.41;96585.84;5013036;28;20073;-72
2021/03/19 02:12:48;;;;;;;30.33;18.33;;;;;;;-1.89;86.19;96584.31;5010906;28;20590;-72
2021/03/19 02:15:51;;;;;;;29.88;17.63;;;;;;;-1.96;86.63;96583.06;5011262;28;20041;-71
2021/03/19 02:18:55;;;;;;;31.65;18.15;;;;;;;-1.73;85.26;96583.41;5011408;28;20064;-71
2021/03/19 02:21:58;;;;;;;29.45;16.83;;;;;;;-1.82;85.74;96587.34;5013116;28;20041;-71
2021/03/19 02:25:02;;;;;;;27.25;16.17;;;;;;;-1.51;85.25;96593.09;5008942;28;20046;-71
2021/03/19 02:28:05;;;;;;;27.10;15.68;;;;;;;-1.64;85.26;96593.03;5010823;28;20506;-71
2021/03/19 02:31:08;;;;;;;30.10;16.23;;;;;;;-1.35;83.98;96580.19;5007226;28;20483;-72
2021/03/19 02:33:50;;;;;;;31.60;17.52;;;;;;;-1.47;84.42;96590.22;5006653;28;20120;-71
2021/03/19 02:36:22;;;;;;;28.77;15.75;;;;;;;-1.18;83.45;96582.47;5011749;28;20046;-71
2021/03/19 02:38:49;;;;;;;30.80;18.20;;;;;;;-1.50;84.65;96594.75;5008174;28;20791;-71
2021/03/19 02:41:16;;;;;;;30.92;17.33;;;;;;;-1.36;84.08;96586.19;5008219;28;20133;-70
2021/03/19 02:43:42;;;;;;;25.40;16.35;;;;;;;-1.45;84.36;96573.09;5010267;28;20101;-71
2021/03/19 02:46:09;;;;;;;26.65;16.13;;;;;;;-1.40;84.70;96582.19;5006994;28;20430;-72
2021/03/19 02:48:35;;;;;;;32.00;17.17;;;;;;;-1.41;84.68;96583.94;5011020;28;20045;-70
2021/03/19 02:51:03;;;;;;;26.83;16.03;;;;;;;-1.21;83.69;96585.22;5009710;28;20046;-71
2021/03/19 02:53:31;;;;;;;31.25;17.65;;;;;;;-1.37;84.31;96582.03;5008125;28;20283;-71
2021/03/19 02:56:00;;;;;;;29.73;17.85;;;;;;;-1.22;83.54;96581.03;5008594;28;20049;-71
2021/03/19 02:58:28;;;;;;;26.02;15.50;;;;;;;-1.09;83.33;96584.44;5010014;28;20049;-70
2021/03/19 03:00:55;;;;;;;24.40;15.68;;;;;;;-0.93;82.81;96593.66;5010643;28;20049;-70
2021/03/19 03:03:21;;;;;;;28.05;16.52;;;;;;;-0.96;82.42;96588.75;4993264;28;20065;-72
2021/03/19 03:05:49;;;;;;;27.00;15.82;;;;;;;-1.09;83.10;96587.00;5009694;28;20045;-71
2021/03/19 03:08:17;;;;;;;25.70;15.57;;;;;;;-1.10;83.38;96581.97;5010436;28;20287;-71
2021/03/19 03:10:45;;;;;;;27.25;16.92;;;;;;;-1.07;82.55;96572.38;5010124;28;20283;-70
2021/03/19 03:13:12;;;;;;;25.20;14.77;;;;;;;-1.00;82.92;96577.91;5013124;28;20129;-71
2021/03/19 03:15:40;;;;;;;26.65;15.98;;;;;;;-0.93;82.14;96563.00;5006568;28;20057;-71
2021/03/19 03:18:07;;;;;;;26.63;15.25;;;;;;;-0.92;82.09;96568.00;5011685;28;20092;-71
2021/03/19 03:20:38;;;;;;;28.45;16.65;;;;;;;-1.23;83.09;96569.16;5004884;28;20068;-72
2021/03/19 03:23:05;;;;;;;28.08;16.60;;;;;;;-1.22;83.45;96565.72;4975444;28;20077;-71
2021/03/19 03:25:32;;;;;;;29.00;16.77;;;;;;;-1.11;82.84;96560.72;5007574;28;20050;-71
2021/03/19 03:27:58;;;;;;;27.23;14.85;;;;;;;-0.97;82.52;96564.09;5009852;28;20295;-71
2021/03/19 03:30:33;;;;;;;26.33;15.88;;;;;;;-1.25;83.07;96561.63;5010099;28;20061;-71
2021/03/19 03:33:00;;;;;;;25.02;15.57;;;;;;;-1.19;83.18;96560.41;4994931;28;21309;-70
2021/03/19 03:35:28;;;;;;;27.80;16.35;;;;;;;-1.21;83.40;96552.00;5010467;28;20054;-70
2021/03/19 03:37:59;;;;;;;29.15;16.33;;;;;;;-1.24;83.22;96554.78;5009000;28;20136;-71
2021/03/19 03:40:30;;;;;;;28.95;16.38;;;;;;;-1.40;83.75;96556.66;5007395;28;20045;-71
2021/03/19 03:42:56;;;;;;;29.50;17.45;;;;;;;-1.36;83.73;96553.00;5010634;28;20070;-71
2021/03/19 03:45:23;;;;;;;30.80;17.40;;;;;;;-1.47;84.34;96554.50;5009448;28;20050;-70
2021/03/19 03:47:50;;;;;;;26.97;15.90;;;;;;;-1.40;84.11;96544.69;5009036;28;20041;-71
2021/03/19 03:50:20;;;;;;;29.52;17.08;;;;;;;-1.41;84.07;96542.28;5006279;28;20068;-73
2021/03/19 03:53:03;;;;;;;27.92;17.50;;;;;;;-1.64;85.06;96555.56;4993949;28;20051;-71
2021/03/19 03:55:30;;;;;;;28.27;16.85;;;;;;;-1.62;85.12;96549.53;5005698;28;20100;-71
2021/03/19 03:57:56;;;;;;;27.20;16.65;;;;;;;-1.62;85.09;96552.91;5009161;28;20097;-71
2021/03/19 04:00:25;;;;;;;27.15;17.05;;;;;;;-1.54;84.75;96563.47;5005890;28;20042;-72
2021/03/19 04:02:52;;;;;;;26.25;15.52;;;;;;;-1.35;84.14;96559.75;5009959;28;20142;-71
2021/03/19 04:05:49;;;;;;;28.52;17.67;;;;;;;-1.54;84.62;96558.34;5009271;28;20497;-72
2021/03/19 04:08:22;;;;;;;29.30;17.02;;;;;;;-1.64;85.15;96558.09;4990225;28;20057;-71
2021/03/19 04:10:49;;;;;;;30.15;16.80;;;;;;;-1.72;85.40;96556.94;5007342;28;20172;-71
2021/03/19 04:13:16;;;;;;;28.15;16.85;;;;;;;-1.41;84.14;96558.41;5004700;28;20088;-71
2021/03/19 04:15:44;;;;;;;29.42;16.98;;;;;;;-1.59;84.83;96557.00;5010791;28;20045;-70
2021/03/19 04:18:14;;;;;;;29.73;17.50;;;;;;;-1.58;84.86;96556.91;5009357;28;20073;-71
2021/03/19 04:20:43;;;;;;;30.83;18.02;;;;;;;-1.58;84.74;96561.22;4991410;28;20044;-71
2021/03/19 04:23:25;;;;;;;32.95;17.55;;;;;;;-1.60;85.02;96563.84;4992704;28;20809;-71
2021/03/19 04:25:53;;;;;;;30.85;18.27;;;;;;;-1.43;84.80;96557.69;5008405;28;20052;-71
2021/03/19 04:28:23;;;;;;;28.07;16.07;;;;;;;-1.48;84.63;96552.88;5005657;28;20076;-71
2021/03/19 04:30:49;;;;;;;28.13;16.80;;;;;;;-1.42;84.68;96555.94;5012006;28;20470;-72
2021/03/19 04:33:22;;;;;;;28.88;16.58;;;;;;;-1.40;84.40;96559.22;5007416;28;20168;-71
2021/03/19 04:35:59;;;;;;;28.13;16.58;;;;;;;-1.34;84.23;96558.81;4994078;28;20465;-71
2021/03/19 04:38:25;;;;;;;29.27;16.58;;;;;;;-1.25;83.59;96558.22;5012139;28;20510;-70
2021/03/19 04:40:52;;;;;;;29.85;16.65;;;;;;;-1.38;84.39;96565.84;5007504;28;20065;-71
2021/03/19 04:43:18;;;;;;;28.73;16.90;;;;;;;-1.25;83.78;96566.72;4992707;28;20088;-72
2021/03/19 04:45:45;;;;;;;26.10;15.57;;;;;;;-1.38;83.94;96552.28;5005581;28;20136;-71
2021/03/19 04:48:11;;;;;;;27.65;15.95;;;;;;;-1.45;84.25;96557.78;5008015;28;20154;-71
2021/03/19 04:50:38;;;;;;;26.40;16.38;;;;;;;-1.40;84.17;96561.78;4995969;28;20498;-71
2021/03/19 04:53:05;;;;;;;28.40;16.25;;;;;;;-1.23;83.54;96566.63;5009653;28;20042;-71
2021/03/19 04:55:31;;;;;;;28.70;17.63;;;;;;;-1.23;83.33;96564.91;5014839;28;20042;-71
2021/03/19 04:57:58;;;;;;;28.02;16.52;;;;;;;-1.16;83.32;96572.97;5010318;28;20509;-71
2021/03/19 05:00:25;;;;;;;28.42;16.58;;;;;;;-1.36;83.69;96565.75;5007387;28;20038;-71
2021/03/19 05:02:52;;;;;;;26.25;15.80;;;;;;;-1.25;83.72;96574.41;5011707;28;20058;-71
2021/03/19 05:05:28;;;;;;;25.73;16.37;;;;;;;-1.18;83.17;96576.56;5009846;28;20075;-71
2021/03/19 05:07:57;;;;;;;28.10;17.38;;;;;;;-1.34;84.01;96569.03;5012199;28;20145;-71
2021/03/19 05:10:35;;;;;;;27.55;16.85;;;;;;;-1.17;83.20;96573.88;4997704;28;20046;-73
2021/03/19 05:13:07;;;;;;;27.55;16.60;;;;;;;-1.21;83.45;96580.09;5011456;28;20073;-72
2021/03/19 05:15:36;;;;;;;28.48;16.95;;;;;;;-1.11;82.82;96580.34;5010834;28;20056;-72
2021/03/19 05:18:03;;;;;;;27.30;17.30;;;;;;;-1.21;83.27;96575.00;5011821;28;20596;-71
2021/03/19 05:20:30;;;;;;;26.50;17.00;;;;;;;-1.00;82.48;96577.09;5012942;28;20049;-71
2021/03/19 05:22:56;;;;;;;28.58;17.33;;;;;;;-1.03;82.59;96580.69;4999150;28;20085;-71
2021/03/19 05:25:28;;;;;;;32.05;18.77;;;;;;;-1.06;82.74;96578.31;5012243;28;20057;-71
2021/03/19 05:27:58;;;;;;;30.52;18.50;;;;;;;-1.01;82.79;96585.69;5009846;28;20659;-71
2021/03/19 05:30:27;;;;;;;29.67;18.42;;;;;;;-0.96;82.70;96588.75;5010149;28;20092;-71
2021/03/19 05:32:53;;;;;;;30.15;18.63;;;;;;;-0.86;82.88;96594.91;4991062;28;20506;-71
2021/03/19 05:35:22;;;;;;;30.80;19.80;;;;;;;-0.99;82.59;96591.53;4995091;28;20064;-72
2021/03/19 05:37:48;;;;;;;35.72;21.13;;;;;;;-0.88;82.42;96583.97;5013284;28;20042;-72
2021/03/19 05:40:29;;;;;;;35.13;20.15;;;;;;;-0.96;82.99;96591.31;5012957;28;20096;-72
2021/03/19 05:43:28;;;;;;;36.55;19.98;;;;;;;-0.79;83.02;96593.59;4996654;28;20064;-73
2021/03/19 05:46:07;;;;;;;27.38;17.13;;;;;;;-0.69;82.52;96596.38;5009151;28;20046;-73
2021/03/19 05:48:58;;;;;;;29.05;17.92;;;;;;;-0.69;82.56;96592.06;5012810;28;20038;-73
2021/03/19 05:51:33;;;;;;;31.10;18.55;;;;;;;-0.48;81.81;96602.63;5011273;28;20046;-73
2021/03/19 05:54:15;;;;;;;30.27;17.33;;;;;;;-0.50;81.13;96596.78;5009898;28;20073;-71
2021/03/19 05:56:42;;;;;;;27.33;17.23;;;;;;;-0.33;81.24;96602.53;5011955;28;20046;-71
2021/03/19 05:59:08;;;;;;;33.28;19.13;;;;;;;-0.47;82.48;96598.31;5011030;28;20052;-72
2021/03/19 06:01:37;;;;;;;36.35;20.08;;;;;;;-0.54;83.43;96602.22;5012379;28;20544;-72
2021/03/19 06:04:04;;;;;;;35.00;19.17;;;;;;;-0.19;80.97;96611.81;5009460;28;20080;-71
2021/03/19 06:06:55;;;;;;;37.25;20.45;;;;;;;-0.28;82.15;96608.13;4983372;28;20085;-71
2021/03/19 06:09:29;;;;;;;30.92;18.65;;;;;;;-0.09;81.99;96608.53;5014091;28;20034;-69
2021/03/19 06:12:08;;;;;;;29.60;18.30;;;;;;;-0.06;81.46;96604.97;5006834;28;20046;-69
2021/03/19 06:14:52;;;;;;;25.88;16.77;;;;;;;-0.01;79.99;96608.84;5007432;28;20054;-72
2021/03/19 06:17:34;;;;;;;32.30;21.08;;;;;;;-0.11;80.32;96601.88;5010660;28;20430;-74
2021/03/19 06:20:02;;;;;;;87.68;63.03;;;;;;;-0.29;80.13;96616.75;5014266;28;20045;-73
2021/03/19 06:22:46;;;;;;;29.95;18.40;;;;;;;-0.19;79.72;96609.25;5011989;28;20084;-71
2021/03/19 06:25:21;;;;;;;28.42;18.92;;;;;;;0.13;79.71;96615.59;5011283;28;20042;-71
2021/03/19 06:27:54;;;;;;;37.97;21.92;;;;;;;0.19;79.57;96620.28;4992785;28;20058;-71
2021/03/19 06:30:26;;;;;;;29.83;19.45;;;;;;;0.32;79.29;96611.75;5007608;28;20046;-71
2021/03/19 06:33:28;;;;;;;34.65;21.58;;;;;;;0.17;81.58;96613.59;5009512;28;20042;-71
2021/03/19 06:36:13;;;;;;;29.65;17.98;;;;;;;0.25;80.21;96621.59;5011392;28;20125;-71
2021/03/19 06:38:45;;;;;;;28.98;17.52;;;;;;;0.50;78.76;96620.69;5010153;28;20111;-71
2021/03/19 06:41:17;;;;;;;26.00;15.93;;;;;;;0.44;78.85;96618.56;5010408;28;20060;-72
2021/03/19 06:43:44;;;;;;;31.90;18.40;;;;;;;0.34;78.86;96615.00;5011882;28;20038;-73
2021/03/19 06:46:32;;;;;;;27.42;18.25;;;;;;;0.28;79.70;96623.13;4992630;28;20077;-72
2021/03/19 06:49:01;;;;;;;;;;;;;;;0.16;79.14;96619.66;5012602;28;20096;-72
2021/03/19 06:51:33;;;;;;;30.67;18.87;;;;;;;0.33;79.18;96623.63;5011225;28;19988;-72
2021/03/19 06:54:07;;;;;;;30.60;19.30;;;;;;;0.41;78.67;96618.78;5010157;28;20066;-72
2021/03/19 06:56:34;;;;;;;28.92;18.23;;;;;;;0.77;77.09;96615.38;5012822;28;20052;-71
2021/03/19 06:59:22;;;;;;;28.85;19.02;;;;;;;1.00;76.02;96611.19;4994603;28;20058;-72
2021/03/19 07:01:52;;;;;;;28.40;18.40;;;;;;;1.04;75.69;96608.38;4993279;28;20038;-72
2021/03/19 07:04:58;;;;;;;28.33;19.98;;;;;;;1.13;74.78;96615.44;5011304;28;20060;-72
2021/03/19 07:07:51;;;;;;;31.40;19.63;;;;;;;1.38;76.18;96617.03;4954640;28;20090;-72
2021/03/19 07:10:29;;;;;;;32.67;20.20;;;;;;;1.43;74.90;96615.72;5011257;28;20041;-72
2021/03/19 07:13:13;;;;;;;26.38;17.92;;;;;;;1.16;75.29;96618.56;4994730;28;20043;-72
2021/03/19 07:15:59;;;;;;;28.02;18.38;;;;;;;1.47;75.29;96621.47;4995996;28;20054;-72
2021/03/19 07:18:36;;;;;;;32.70;19.88;;;;;;;1.31;75.42;96619.22;4995691;28;20071;-72
2021/03/19 07:21:36;;;;;;;30.67;21.33;;;;;;;1.20;75.29;96621.72;5016112;28;20042;-72
2021/03/19 07:24:18;;;;;;;32.30;21.10;;;;;;;1.29;74.08;96623.66;5007981;28;20054;-72
2021/03/19 07:26:50;;;;;;;33.25;20.02;;;;;;;1.34;73.95;96623.31;4994486;28;20469;-72
2021/03/19 07:29:49;;;;;;;26.27;18.92;;;;;;;1.71;72.79;96623.13;5010787;28;20132;-73
2021/03/19 07:32:41;;;;;;;29.17;20.52;;;;;;;1.42;72.66;96626.13;5009278;28;20493;-72
2021/03/19 07:35:17;;;;;;;29.92;19.80;;;;;;;2.07;71.33;96631.56;5009481;28;22437;-72
2021/03/19 07:38:02;;;;;;;30.70;19.42;;;;;;;2.08;70.86;96630.66;4997397;28;20041;-72
2021/03/19 07:40:53;;;;;;;29.77;20.73;;;;;;;2.11;70.97;96632.97;5010854;28;20056;-72
2021/03/19 07:43:28;;;;;;;26.23;19.05;;;;;;;1.68;71.90;96629.31;5011227;28;20060;-72
2021/03/19 07:46:53;;;;;;;26.65;18.23;;;;;;;2.13;70.44;96628.53;5011664;28;20050;-72
2021/03/19 07:49:31;;;;;;;35.90;24.83;;;;;;;2.55;70.31;96632.13;4972289;28;20055;-72
2021/03/19 07:52:25;;;;;;;24.67;17.45;;;;;;;1.63;71.91;96634.78;4971991;28;20050;-72
2021/03/19 07:55:03;;;;;;;21.52;15.30;;;;;;;1.91;71.85;96635.31;4991323;28;20054;-73
2021/03/19 07:58:08;;;;;;;23.20;15.77;;;;;;;1.76;72.29;96629.56;4996050;28;20042;-72
2021/03/19 08:00:40;;;;;;;25.05;16.48;;;;;;;2.21;71.30;96639.03;4995803;28;20060;-72
2021/03/19 08:03:20;;;;;;;21.08;15.15;;;;;;;2.21;70.45;96629.56;5009270;28;20069;-73
2021/03/19 08:05:52;;;;;;;23.15;14.80;;;;;;;2.02;71.02;96625.03;5008622;28;20107;-73
2021/03/19 08:08:45;;;;;;;21.08;15.00;;;;;;;2.36;70.27;96637.84;4994753;28;20132;-72
2021/03/19 08:11:38;;;;;;;24.10;16.55;;;;;;;2.61;69.73;96644.47;5007375;28;20039;-71
2021/03/19 08:14:45;;;;;;;21.65;14.43;;;;;;;3.46;66.23;96630.84;5011860;28;20049;-71
2021/03/19 08:17:22;;;;;;;23.85;15.52;;;;;;;2.77;68.14;96643.28;5011333;28;20052;-70
2021/03/19 08:20:14;;;;;;;23.65;15.43;;;;;;;3.21;66.81;96636.34;5007009;28;20058;-71
2021/03/19 08:22:59;;;;;;;23.00;15.57;;;;;;;3.04;67.01;96628.22;4995124;28;20072;-71
2021/03/19 08:25:47;;;;;;;20.40;15.07;;;;;;;2.94;66.71;96644.50;5007735;28;20500;-72
2021/03/19 08:28:41;;;;;;;22.90;13.43;;;;;;;3.90;64.20;96635.88;5011032;28;20466;-72
2021/03/19 08:31:57;;;;;;;18.67;13.77;;;;;;;4.16;63.32;96643.97;5011838;28;20041;-72
2021/03/19 08:34:36;;;;;;;20.00;14.38;;;;;;;3.95;63.70;96649.16;5007412;28;20115;-72
2021/03/19 08:37:25;;;;;;;19.98;15.10;;;;;;;3.92;64.73;96652.00;4993330;28;20057;-72
2021/03/19 08:39:53;;;;;;;19.05;14.70;;;;;;;3.64;64.25;96643.16;4995674;28;20046;-72
2021/03/19 08:42:24;;;;;;;23.30;15.45;;;;;;;2.93;66.40;96658.31;4977985;28;20168;-72
2021/03/19 08:44:50;;;;;;;19.58;14.52;;;;;;;2.45;67.80;96646.59;5008425;28;20037;-72
2021/03/19 08:47:26;;;;;;;22.98;14.02;;;;;;;2.43;66.95;96664.72;5004076;28;20045;-72
2021/03/19 08:49:56;;;;;;;18.10;13.38;;;;;;;2.85;65.17;96652.00;5008898;28;20544;-72
2021/03/19 08:52:35;;;;;;;21.80;13.73;;;;;;;3.20;65.51;96657.91;4992431;28;20030;-71
2021/03/19 08:55:23;;;;;;;21.70;13.52;;;;;;;3.33;64.22;96644.84;5009713;28;20054;-72
2021/03/19 08:57:55;;;;;;;18.73;13.60;;;;;;;3.36;63.99;96649.75;5011549;28;20046;-71
2021/03/19 09:00:24;;;;;;;20.23;13.90;;;;;;;3.61;63.60;96657.09;4992140;28;20061;-71
2021/03/19 09:03:06;;;;;;;18.58;14.40;;;;;;;3.90;62.29;96653.09;5009117;28;20045;-72
2021/03/19 09:05:57;;;;;;;18.52;13.48;;;;;;;3.58;62.55;96659.13;4992406;28;20670;-71
2021/03/19 09:08:49;;;;;;;18.58;12.98;;;;;;;3.73;62.96;96663.00;5007700;28;20076;-71
2021/03/19 09:11:38;;;;;;;18.08;13.07;;;;;;;3.57;61.93;96650.56;5008808;28;20050;-71
2021/03/19 09:14:04;;;;;;;18.42;13.32;;;;;;;3.53;63.64;96656.09;4978075;28;20049;-72
2021/03/19 09:16:43;;;;;;;20.42;13.40;;;;;;;4.67;59.87;96666.25;4994885;28;20784;-71
2021/03/19 09:19:51;;;;;;;19.23;13.18;;;;;;;3.79;61.04;96657.38;4994716;28;20042;-72
2021/03/19 09:22:24;;;;;;;17.95;12.98;;;;;;;3.58;62.57;96652.22;5010374;28;20419;-72
2021/03/19 09:25:13;;;;;;;17.77;13.02;;;;;;;4.50;59.71;96656.59;4992657;28;20488;-72
2021/03/19 09:27:44;;;;;;;17.27;13.75;;;;;;;4.74;59.77;96658.00;5006362;28;20128;-72
2021/03/19 09:30:22;;;;;;;17.52;12.60;;;;;;;4.77;57.89;96663.72;5010823;28;20042;-71
2021/03/19 09:32:52;;;;;;;;;;;;;;;5.01;55.85;96663.34;5004818;28;20071;-71
2021/03/19 09:35:37;;;;;;;14.60;11.10;;;;;;;5.61;53.77;96652.91;5010938;28;19929;-71
2021/03/19 09:38:11;;;;;;;16.38;12.02;;;;;;;4.82;56.07;96653.00;5014423;28;20050;-71
2021/03/19 09:40:40;;;;;;;16.65;13.02;;;;;;;5.20;55.38;96656.59;5009949;28;20046;-71
2021/03/19 09:43:09;;;;;;;15.25;11.85;;;;;;;6.02;52.79;96652.72;4995924;28;20047;-71
2021/03/19 09:45:39;;;;;;;14.02;11.07;;;;;;;7.71;49.49;96654.84;4983529;28;20196;-71
2021/03/19 09:48:14;;;;;;;15.80;11.80;;;;;;;8.53;48.11;96650.97;4996811;28;20089;-71
2021/03/19 09:50:56;;;;;;;14.13;11.80;;;;;;;8.04;47.90;96657.63;5012223;28;20115;-71
2021/03/19 09:53:29;;;;;;;14.55;11.40;;;;;;;8.33;46.52;96658.13;4996596;28;20042;-71
2021/03/19 09:55:59;;;;;;;11.18;9.90;;;;;;;8.74;45.52;96655.75;4996945;28;20490;-71
2021/03/19 09:58:37;;;;;;;11.98;10.45;;;;;;;8.89;43.43;96636.94;5013247;28;20126;-72
2021/03/19 10:01:38;;;;;;;12.55;10.20;;;;;;;10.55;40.68;96647.94;5013327;28;20042;-71
2021/03/19 10:04:07;;;;;;;11.98;10.13;;;;;;;11.84;38.13;96641.25;5012520;28;20069;-71
2021/03/19 10:06:33;;;;;;;12.18;10.10;;;;;;;12.84;36.47;96646.03;5012919;28;20042;-69
2021/03/19 10:09:07;;;;;;;14.48;10.25;;;;;;;13.93;34.42;96642.50;5009978;28;20054;-69
2021/03/19 10:11:34;;;;;;;10.80;9.70;;;;;;;17.52;30.44;96645.50;4995326;28;20458;-69
2021/03/19 10:14:21;;;;;;;10.85;9.45;;;;;;;15.92;29.57;96652.13;4999072;28;20088;-69
2021/03/19 10:16:47;;;;;;;11.40;9.50;;;;;;;18.70;26.57;96648.13;4994037;28;20506;-68
2021/03/19 10:19:34;;;;;;;10.90;9.50;;;;;;;18.29;26.09;96646.94;5014841;28;20046;-69
2021/03/19 10:22:04;;;;;;;10.45;9.38;;;;;;;17.60;27.62;96645.25;5010082;28;20064;-69
2021/03/19 10:24:31;;;;;;;10.27;9.27;;;;;;;20.68;24.56;96638.47;4995675;28;20046;-70
2021/03/19 10:27:03;;;;;;;10.18;9.18;;;;;;;18.99;25.68;96642.34;4982807;28;20141;-70
2021/03/19 10:29:35;;;;;;;10.18;9.20;;;;;;;20.78;23.49;96641.31;5011405;28;20045;-70
2021/03/19 10:32:10;;;;;;;9.90;8.90;;;;;;;9.69;41.12;96644.97;5006713;28;20120;-70
2021/03/19 10:34:36;;;;;;;13.27;11.02;;;;;;;7.70;46.20;96645.44;4994724;28;20430;-70
2021/03/19 10:37:14;;;;;;;11.90;10.27;;;;;;;7.31;48.81;96651.75;5009890;28;20049;-70
2021/03/19 10:39:56;;;;;;;12.30;10.88;;;;;;;7.02;49.69;96653.75;5011196;28;20049;-71
2021/03/19 10:42:33;;;;;;;13.93;12.45;;;;;;;7.79;50.11;96649.72;5006101;28;20048;-72
2021/03/19 10:45:06;;;;;;;12.00;9.95;;;;;;;14.45;36.87;96650.88;5006526;28;20124;-70
2021/03/19 10:47:45;;;;;;;11.02;9.93;;;;;;;18.19;28.61;96648.47;5004267;28;20478;-71
2021/03/19 10:50:25;;;;;;;11.43;9.27;;;;;;;8.41;45.24;96643.63;5002142;28;20046;-70
2021/03/19 10:53:05;;;;;;;11.40;9.30;;;;;;;5.73;52.43;96653.56;4990527;28;20050;-70
2021/03/19 10:55:35;;;;;;;11.38;9.40;;;;;;;10.27;43.69;96645.72;5005900;28;20085;-70
2021/03/19 10:58:34;;;;;;;11.05;8.38;;;;;;;13.68;36.33;96651.75;4989497;28;20605;-70
2021/03/19 11:01:27;;;;;;;12.23;8.10;;;;;;;14.38;33.89;96645.59;4988302;28;20437;-71
2021/03/19 11:03:54;;;;;;;9.90;8.68;;;;;;;14.42;34.33;96641.59;5002598;28;20039;-71
2021/03/19 11:06:34;;;;;;;9.55;8.55;;;;;;;14.05;35.13;96640.97;5006151;28;20042;-72
2021/03/19 11:09:11;;;;;;;11.23;9.88;;;;;;;10.36;40.74;96654.34;5007450;28;20066;-70
2021/03/19 11:11:39;;;;;;;13.63;12.23;;;;;;;7.74;48.92;96644.16;5012144;28;20755;-69
2021/03/19 11:14:08;;;;;;;12.70;10.82;;;;;;;6.31;53.06;96655.22;4999204;28;20298;-68
2021/03/19 11:16:38;;;;;;;12.05;10.35;;;;;;;5.50;56.60;96653.03;5010182;28;20046;-71
2021/03/19 11:19:16;;;;;;;12.07;9.48;;;;;;;6.44;55.75;96657.47;4992000;28;20065;-69
2021/03/19 11:21:44;;;;;;;14.35;11.82;;;;;;;5.30;57.17;96644.50;5009390;28;20453;-72
2021/03/19 11:24:23;;;;;;;11.93;10.43;;;;;;;5.17;55.28;96651.72;5008230;28;20613;-71
2021/03/19 11:27:11;;;;;;;12.07;8.85;;;;;;;5.28;55.52;96660.13;4992550;28;20104;-72
2021/03/19 11:29:41;;;;;;;10.50;8.50;;;;;;;5.56;54.76;96651.69;5004811;28;20145;-71
2021/03/19 11:32:10;;;;;;;7.72;6.82;;;;;;;11.89;41.25;96651.97;4975307;28;20053;-71
2021/03/19 11:34:43;;;;;;;10.93;8.05;;;;;;;16.60;32.01;96648.38;5006745;28;20687;-71
2021/03/19 11:37:18;;;;;;;12.18;9.18;;;;;;;18.72;27.85;96650.53;5004833;28;20057;-73
2021/03/19 11:39:57;;;;;;;7.38;6.68;;;;;;;16.05;30.40;96657.34;5007348;28;20141;-71
2021/03/19 11:42:43;;;;;;;7.10;6.40;;;;;;;9.29;41.39;96638.81;5004888;28;20037;-70
2021/03/19 11:45:12;;;;;;;7.53;6.75;;;;;;;7.79;48.20;96647.13;5000093;28;20069;-71
2021/03/19 11:47:58;;;;;;;8.60;7.43;;;;;;;7.13;49.89;96649.19;4992042;28;20052;-73
2021/03/19 11:50:42;;;;;;;8.90;7.32;;;;;;;5.98;51.46;96641.03;4988856;28;20567;-71
2021/03/19 11:53:16;;;;;;;11.57;7.10;;;;;;;4.96;54.36;96652.63;4991796;28;20054;-72
2021/03/19 11:55:46;;;;;;;9.35;7.63;;;;;;;5.16;53.76;96640.53;5008313;28;20048;-74
2021/03/19 11:58:14;;;;;;;8.68;7.30;;;;;;;5.80;51.55;96635.72;5007517;28;20041;-73
2021/03/19 12:00:43;;;;;;;18.17;7.82;;;;;;;6.10;52.55;96650.25;5003550;28;20128;-72
2021/03/19 12:03:17;;;;;;;13.02;10.10;;;;;;;4.75;60.77;96651.91;4989606;28;20072;-73